首页
METAR-TAF:

METAR-TAF

机场 :

Dease Lake, 不列颠哥伦比亚, 加拿大

纬度: 58-25-20N, 经度: 130-01-53W, 海拔: 803米

当前天气观测

该预报发布于1小时和11分钟前的21:00 UTC
风速7节,风向西南,在南转西南西之间变化
温度 23°C
湿度 22%
气压 1015 hPa
能見度: 14.5公里
天空无云

METAR: CYDL 262100Z AUTO 22007KT 200V260 9SM CLR 23/00 A2996 RMK SLP145 DENSITY ALT 4000FT

时间: 15:11 (22:11 UTC)

预报

该预报发布于4小时和30分钟前的17:41 UTC
预报有效从26日的 18点(UTC)到 27日的 02点(UTC)
风速3节,风向多变
能見度: 10公里
天空无云
成为
从 26日的 18点(UTC)到 26日的 20点(UTC)
风速7节,风向西南

TAF: CYDL 261741Z 2618/2702 VRB03KT P6SM SKC BECMG 2618/2620 22007KT RMK FCST BASED ON AUTO OBS. NXT FCST BY 270000Z

超过4000个机场的气象观测和天气预报(METAR&TAF报告)。

可查询的气象台以黄色和红色小点在地图上表示。

将鼠标移到小点上方,可查看气象台名称。

然后点击查看天气观测和预报。

如需切换地图:点击带黑十字的绿色按钮放大地图;点击带横线的绿色按钮缩小地图;或者点击绿色箭头查看邻近地区的地图。


METAR-TAF: